Time;durP1;ratioP1;P1;durP2;ratioP2;P2;SDS_P1;SDS_P2;PMS_P1;PMS_P2;Temp;Humidity;BMP_temperature;BMP_pressure;BME280_temperature;BME280_humidity;BME280_pressure;Samples;Min_cycle;Max_cycle;Signal;HPM_P1;HPM_P2
2022/08/02 00:01:55;;;;;;;1.53;1.43;;;;;;;16.08;100.00;100967.78;4989422;28;20551;-74
2022/08/02 00:04:22;;;;;;;1.37;1.23;;;;;;;16.03;100.00;100970.59;5001447;28;20212;-73
2022/08/02 00:06:48;;;;;;;2.00;1.80;;;;;;;16.01;100.00;100967.19;4995111;28;20228;-73
2022/08/02 00:09:16;;;;;;;1.57;1.40;;;;;;;16.04;100.00;100967.06;4980409;28;20192;-74
2022/08/02 00:11:42;;;;;;;1.50;1.40;;;;;;;15.99;100.00;100962.91;4986370;28;20566;-73
2022/08/02 00:14:09;;;;;;;2.50;1.53;;;;;;;15.89;100.00;100962.47;4980287;28;20236;-74
2022/08/02 00:16:36;;;;;;;1.57;1.47;;;;;;;15.84;100.00;100956.53;4983466;28;20228;-72
2022/08/02 00:19:02;;;;;;;1.50;1.40;;;;;;;15.84;100.00;100953.91;4982269;28;20208;-73
2022/08/02 00:21:29;;;;;;;1.73;1.37;;;;;;;15.77;100.00;100957.72;4986680;28;20556;-73
2022/08/02 00:23:55;;;;;;;2.03;1.77;;;;;;;15.78;100.00;100960.28;4984925;28;20194;-73
2022/08/02 00:26:23;;;;;;;1.47;1.37;;;;;;;15.74;100.00;100963.06;5035962;23;20230;-75
2022/08/02 00:28:49;;;;;;;1.57;1.47;;;;;;;15.68;100.00;100964.19;5060053;28;20203;-75
2022/08/02 00:31:16;;;;;;;1.50;1.40;;;;;;;15.61;100.00;100965.38;5066678;28;20531;-75
2022/08/02 00:33:42;;;;;;;1.50;1.40;;;;;;;15.57;100.00;100959.38;5072944;28;20217;-74
2022/08/02 00:36:08;;;;;;;1.60;1.50;;;;;;;15.57;100.00;100956.75;5037385;28;20230;-75
2022/08/02 00:38:35;;;;;;;1.50;1.40;;;;;;;15.48;100.00;100960.63;5034812;28;20208;-76
2022/08/02 00:41:01;;;;;;;2.77;2.00;;;;;;;15.49;100.00;100957.06;5051533;28;20201;-75
2022/08/02 00:43:29;;;;;;;1.47;1.37;;;;;;;15.48;100.00;100962.41;5052526;28;20583;-75
2022/08/02 00:45:57;;;;;;;1.67;1.50;;;;;;;15.44;100.00;100960.81;5067871;28;20232;-75
2022/08/02 00:48:23;;;;;;;1.80;1.67;;;;;;;15.50;100.00;100965.81;5064651;28;20204;-75
2022/08/02 00:50:49;;;;;;;1.90;1.70;;;;;;;15.47;100.00;100960.69;5029749;28;20313;-75
2022/08/02 00:53:16;;;;;;;1.67;1.50;;;;;;;15.52;100.00;100959.56;5046397;28;20223;-75
2022/08/02 00:55:42;;;;;;;1.70;1.60;;;;;;;15.57;100.00;100964.66;5055474;28;20233;-75
2022/08/02 00:58:09;;;;;;;1.87;1.67;;;;;;;15.53;100.00;100957.78;5047653;28;20672;-75
2022/08/02 01:00:36;;;;;;;1.90;1.80;;;;;;;15.50;100.00;100966.66;5055381;28;20199;-75
2022/08/02 01:03:03;;;;;;;2.20;2.00;;;;;;;15.44;100.00;100963.44;5052442;28;20679;-75
2022/08/02 01:05:29;;;;;;;1.97;1.77;;;;;;;15.40;100.00;100964.47;5049382;28;20295;-75
2022/08/02 01:07:56;;;;;;;1.70;1.60;;;;;;;15.46;100.00;100959.84;5055396;28;20655;-75
2022/08/02 01:10:23;;;;;;;6.70;2.10;;;;;;;15.51;100.00;100965.75;5049505;28;20196;-75
2022/08/02 01:12:50;;;;;;;2.83;2.37;;;;;;;15.50;100.00;100965.81;5050074;28;20236;-75
2022/08/02 01:15:17;;;;;;;2.07;1.73;;;;;;;15.54;100.00;100967.41;5047206;28;20231;-75
2022/08/02 01:17:49;;;;;;;1.80;1.60;;;;;;;15.58;100.00;100966.34;5045145;28;20203;-75
2022/08/02 01:20:45;;;;;;;1.73;1.40;;;;;;;15.55;100.00;100969.13;5051053;28;20583;-75
2022/08/02 01:23:31;;;;;;;2.10;1.90;;;;;;;15.53;100.00;100968.28;5055426;28;20203;-75
2022/08/02 01:26:09;;;;;;;1.93;1.50;;;;;;;15.56;100.00;100964.72;5065680;28;20638;-75
2022/08/02 01:28:40;;;;;;;2.20;1.93;;;;;;;15.54;100.00;100964.75;5043502;28;20212;-75
2022/08/02 01:31:14;;;;;;;2.03;1.83;;;;;;;15.49;100.00;100962.31;5041452;28;20198;-74
2022/08/02 01:33:48;;;;;;;1.67;1.57;;;;;;;15.49;100.00;100950.97;5050464;28;20683;-75
2022/08/02 01:36:18;;;;;;;1.73;1.63;;;;;;;15.46;100.00;100954.59;5038790;28;20652;-75
2022/08/02 01:38:48;;;;;;;3.73;1.80;;;;;;;15.41;100.00;100955.66;5046038;28;20201;-75
2022/08/02 01:41:19;;;;;;;3.37;1.90;;;;;;;15.38;100.00;100956.66;5043193;28;20372;-75
2022/08/02 01:43:49;;;;;;;2.87;1.87;;;;;;;15.41;100.00;100950.41;5055124;28;20192;-75
2022/08/02 01:46:18;;;;;;;2.40;2.00;;;;;;;15.40;100.00;100943.47;5046617;28;20343;-75
2022/08/02 01:48:46;;;;;;;3.23;2.10;;;;;;;15.32;100.00;100949.88;5059832;28;20267;-75
2022/08/02 01:51:16;;;;;;;2.20;2.00;;;;;;;15.24;100.00;100948.50;5046873;28;20684;-75
2022/08/02 01:53:44;;;;;;;2.73;2.00;;;;;;;15.20;100.00;100957.41;5036486;28;20221;-75
2022/08/02 01:56:14;;;;;;;2.80;1.80;;;;;;;15.20;100.00;100952.16;5047970;28;20243;-75
2022/08/02 01:58:42;;;;;;;1.90;1.80;;;;;;;15.18;100.00;100952.22;5065013;28;20208;-75
2022/08/02 02:01:13;;;;;;;2.00;1.80;;;;;;;15.18;100.00;100962.72;5040056;28;20215;-75
2022/08/02 02:03:40;;;;;;;4.07;1.87;;;;;;;15.19;100.00;100960.94;5034435;28;20466;-75
2022/08/02 02:06:08;;;;;;;1.80;1.70;;;;;;;15.25;100.00;100965.94;5047478;28;20656;-75
2022/08/02 02:08:38;;;;;;;2.03;1.83;;;;;;;15.33;100.00;100974.38;5040240;28;20192;-75
2022/08/02 02:11:07;;;;;;;2.07;1.87;;;;;;;15.43;100.00;100970.47;5050632;28;20196;-75
2022/08/02 02:13:39;;;;;;;2.17;1.97;;;;;;;15.44;100.00;100966.94;5054612;28;20216;-74
2022/08/02 02:16:06;;;;;;;2.90;2.30;;;;;;;15.46;100.00;100969.47;5048489;28;20230;-75
2022/08/02 02:18:42;;;;;;;3.13;1.90;;;;;;;15.53;100.00;100969.19;5049511;28;20214;-75
2022/08/02 02:21:09;;;;;;;2.40;2.03;;;;;;;15.56;100.00;100973.44;5036426;28;20669;-75
2022/08/02 02:23:35;;;;;;;2.33;2.00;;;;;;;15.57;100.00;100976.94;5052095;28;20206;-75
2022/08/02 02:26:05;;;;;;;2.37;2.03;;;;;;;15.65;100.00;100980.94;5039758;28;20753;-75
2022/08/02 02:28:34;;;;;;;2.37;2.10;;;;;;;15.66;100.00;100982.66;5037648;28;20220;-75
2022/08/02 02:31:06;;;;;;;2.90;2.10;;;;;;;15.69;100.00;100976.44;5056361;28;20651;-75
2022/08/02 02:33:39;;;;;;;1.93;1.80;;;;;;;15.76;100.00;100983.16;5044184;28;20600;-75
2022/08/02 02:36:09;;;;;;;3.07;2.43;;;;;;;15.77;100.00;100981.38;5061027;28;20218;-74
2022/08/02 02:38:36;;;;;;;2.23;1.97;;;;;;;15.79;100.00;100974.28;5049850;28;20196;-75
2022/08/02 02:41:05;;;;;;;2.40;2.20;;;;;;;15.84;100.00;100982.84;5061707;28;20285;-74
2022/08/02 02:43:33;;;;;;;2.10;1.90;;;;;;;15.86;100.00;100979.19;5052950;28;20199;-74
2022/08/02 02:46:01;;;;;;;2.10;1.90;;;;;;;15.88;100.00;100979.16;5049634;28;20223;-75
2022/08/02 02:48:29;;;;;;;2.47;2.13;;;;;;;15.89;100.00;100981.72;5048324;28;20206;-75
2022/08/02 02:50:58;;;;;;;2.67;2.23;;;;;;;15.93;100.00;100989.47;5047645;28;20261;-74
2022/08/02 02:53:25;;;;;;;2.20;2.00;;;;;;;15.92;100.00;100993.88;5030460;28;20633;-75
2022/08/02 02:55:53;;;;;;;2.93;2.27;;;;;;;15.91;100.00;100994.78;5056831;28;20226;-75
2022/08/02 02:58:20;;;;;;;3.20;1.83;;;;;;;15.94;100.00;100991.19;5053702;28;20202;-76
2022/08/02 03:03:44;;;;;;;2.23;2.03;;;;;;;15.96;100.00;100997.25;4967970;28;20209;-75
2022/08/02 03:06:11;;;;;;;1.93;1.70;;;;;;;15.95;100.00;100996.38;5037502;28;20230;-75
2022/08/02 03:08:38;;;;;;;2.37;2.17;;;;;;;15.92;100.00;101000.91;5031101;28;20208;-76
2022/08/02 03:11:05;;;;;;;2.17;1.97;;;;;;;15.93;100.00;100995.56;5052779;28;20214;-75
2022/08/02 03:13:32;;;;;;;2.27;2.07;;;;;;;15.98;100.00;100995.41;5059715;28;20214;-75
2022/08/02 03:16:00;;;;;;;2.40;2.20;;;;;;;15.99;100.00;100990.06;5043061;28;20246;-75
2022/08/02 03:18:30;;;;;;;2.47;2.27;;;;;;;16.00;100.00;100998.81;5039286;28;20411;-75
2022/08/02 03:20:59;;;;;;;2.30;2.10;;;;;;;15.94;100.00;100994.66;5047944;28;20211;-75
2022/08/02 03:23:27;;;;;;;2.30;1.97;;;;;;;15.94;100.00;100992.03;5046165;28;20204;-75
2022/08/02 03:25:53;;;;;;;2.40;2.17;;;;;;;15.94;100.00;100992.03;5044092;28;20223;-75
2022/08/02 03:28:19;;;;;;;1.83;1.73;;;;;;;15.86;100.00;101002.88;5026860;28;20402;-75
2022/08/02 03:30:46;;;;;;;2.90;2.30;;;;;;;15.80;100.00;100997.03;5043301;28;20209;-75
2022/08/02 03:33:13;;;;;;;3.00;2.70;;;;;;;15.75;100.00;101002.47;5057304;28;20203;-75
2022/08/02 03:35:42;;;;;;;2.20;2.00;;;;;;;15.74;100.00;101005.13;5054471;28;20223;-75
2022/08/02 03:38:11;;;;;;;1.97;1.70;;;;;;;15.72;100.00;101007.81;5043438;28;20763;-75
2022/08/02 03:40:40;;;;;;;2.43;2.20;;;;;;;15.63;100.00;101003.81;5035444;28;20196;-75
2022/08/02 03:43:06;;;;;;;2.63;1.90;;;;;;;15.58;100.00;100999.66;5018070;28;20724;-75
2022/08/02 03:45:33;;;;;;;2.17;1.93;;;;;;;15.53;100.00;101007.72;5044288;28;20215;-75
2022/08/02 03:48:01;;;;;;;2.40;2.20;;;;;;;15.45;100.00;101012.44;5056001;28;20208;-75
2022/08/02 03:50:27;;;;;;;2.60;2.40;;;;;;;15.45;100.00;101009.81;5049108;28;20740;-75
2022/08/02 03:52:54;;;;;;;2.83;2.53;;;;;;;15.35;100.00;101014.56;5042943;28;20195;-75
2022/08/02 03:55:20;;;;;;;2.70;1.93;;;;;;;15.30;100.00;101011.28;5058169;28;20249;-75
2022/08/02 03:57:48;;;;;;;2.47;2.27;;;;;;;15.30;100.00;101016.53;5046387;28;20217;-75
2022/08/02 04:00:19;;;;;;;2.50;2.30;;;;;;;15.33;100.00;101022.50;5029018;28;20207;-75
2022/08/02 04:02:45;;;;;;;2.80;2.50;;;;;;;15.40;100.00;101020.50;5039919;28;20212;-75
2022/08/02 04:05:11;;;;;;;3.17;2.60;;;;;;;15.41;100.00;101019.59;5052041;28;20209;-75
2022/08/02 04:07:38;;;;;;;2.83;2.60;;;;;;;15.48;100.00;101028.09;5036150;28;20289;-75
2022/08/02 04:10:05;;;;;;;2.47;2.27;;;;;;;15.57;100.00;101026.88;5058839;28;20437;-75
2022/08/02 04:12:32;;;;;;;3.13;2.53;;;;;;;15.56;100.00;101036.50;5042479;28;20204;-75
2022/08/02 04:15:00;;;;;;;5.50;2.83;;;;;;;15.51;100.00;101034.09;5053091;28;20226;-75
2022/08/02 04:17:31;;;;;;;3.37;2.60;;;;;;;15.48;100.00;101033.34;5027080;28;20468;-75
2022/08/02 04:20:03;;;;;;;3.33;3.03;;;;;;;15.53;100.00;101041.88;5047625;28;20216;-75
2022/08/02 04:22:40;;;;;;;2.50;2.30;;;;;;;15.49;100.00;101049.03;5024927;28;20685;-75
2022/08/02 04:25:09;;;;;;;2.67;2.47;;;;;;;15.58;100.00;101057.47;4989503;28;1033476;-74
2022/08/02 04:27:37;;;;;;;3.40;2.83;;;;;;;15.62;100.00;101057.31;5045638;28;20615;-75
2022/08/02 04:30:07;;;;;;;2.97;2.60;;;;;;;15.63;100.00;101066.03;5051545;28;20205;-75
2022/08/02 04:32:34;;;;;;;2.80;2.60;;;;;;;15.71;100.00;101070.06;5041963;28;20198;-75
2022/08/02 04:35:02;;;;;;;2.70;2.50;;;;;;;15.80;100.00;101070.66;5054632;28;20213;-75
2022/08/02 04:37:28;;;;;;;3.20;2.80;;;;;;;15.84;100.00;101073.06;5059914;28;20208;-75
2022/08/02 04:39:55;;;;;;;3.27;2.67;;;;;;;15.92;100.00;101069.28;5056142;28;20701;-75
2022/08/02 04:42:22;;;;;;;3.13;2.83;;;;;;;15.96;100.00;101062.97;5039632;28;20656;-75
2022/08/02 04:44:49;;;;;;;4.77;3.00;;;;;;;16.02;100.00;101071.47;5051070;28;20216;-75
2022/08/02 04:47:18;;;;;;;3.50;3.20;;;;;;;16.08;100.00;101068.56;5055230;28;20229;-75
2022/08/02 04:49:44;;;;;;;3.73;2.63;;;;;;;16.24;100.00;101073.19;5056021;28;20195;-75
2022/08/02 04:52:10;;;;;;;3.63;3.10;;;;;;;16.29;100.00;101076.47;5054022;28;20222;-75
2022/08/02 04:54:37;;;;;;;3.03;2.73;;;;;;;16.33;100.00;101078.06;5055630;28;20228;-75
2022/08/02 04:57:53;;;;;;;3.47;3.17;;;;;;;16.46;100.00;101084.50;5038690;28;20281;-75
2022/08/02 04:59:51;;;;;;;3.63;3.27;;;;;;;16.62;100.00;101082.06;5031941;28;20503;-75
2022/08/02 05:02:18;;;;;;;3.83;3.43;;;;;;;16.71;100.00;101088.69;5050029;28;20199;-75
2022/08/02 05:04:45;;;;;;;3.43;3.10;;;;;;;16.86;100.00;101083.69;5048881;28;20214;-75
2022/08/02 05:07:11;;;;;;;4.00;3.60;;;;;;;17.03;100.00;101089.91;5043017;28;20219;-75
2022/08/02 05:09:38;;;;;;;4.47;3.50;;;;;;;17.12;100.00;101088.63;5052799;28;20629;-75
2022/08/02 05:12:06;;;;;;;3.40;3.10;;;;;;;17.25;100.00;101085.41;5047427;28;20214;-75
2022/08/02 05:14:33;;;;;;;3.30;2.97;;;;;;;17.25;100.00;101088.91;5047040;28;20219;-75
2022/08/02 05:16:59;;;;;;;3.60;3.30;;;;;;;17.30;100.00;101086.06;5050135;28;20218;-75
2022/08/02 05:19:27;;;;;;;4.23;3.33;;;;;;;17.34;100.00;101096.41;5050649;28;20644;-75
2022/08/02 05:21:53;;;;;;;3.43;3.13;;;;;;;17.41;100.00;101087.28;5044897;28;20204;-75
2022/08/02 05:24:19;;;;;;;3.83;3.23;;;;;;;17.58;100.00;101091.72;5020585;28;20595;-75
2022/08/02 05:26:46;;;;;;;4.57;3.03;;;;;;;17.75;100.00;101098.81;5048110;28;20242;-75
2022/08/02 05:29:13;;;;;;;4.10;3.40;;;;;;;17.99;100.00;101095.94;5045946;28;20210;-75
2022/08/02 05:31:39;;;;;;;4.20;3.27;;;;;;;18.08;100.00;101094.63;5041522;28;20247;-75
2022/08/02 05:34:05;;;;;;;3.57;3.10;;;;;;;18.16;100.00;101093.31;5013329;28;20223;-75
2022/08/02 05:36:33;;;;;;;4.17;2.97;;;;;;;18.23;100.00;101093.84;5039440;28;20219;-75
2022/08/02 05:39:00;;;;;;;3.27;2.93;;;;;;;18.21;100.00;101090.44;5047566;28;20217;-75
2022/08/02 05:41:26;;;;;;;3.70;3.30;;;;;;;18.26;100.00;101098.97;5033697;28;20572;-75
2022/08/02 05:43:52;;;;;;;3.67;2.80;;;;;;;18.20;100.00;101095.78;5023980;28;20687;-75
2022/08/02 05:46:19;;;;;;;3.20;2.80;;;;;;;18.22;100.00;101097.41;5040556;28;20223;-75
2022/08/02 05:48:45;;;;;;;3.77;2.67;;;;;;;18.25;100.00;101105.19;5058507;28;20642;-76
2022/08/02 05:51:17;;;;;;;3.20;2.90;;;;;;;18.26;100.00;101098.97;5046699;28;20192;-75
2022/08/02 05:53:51;;;;;;;2.97;2.67;;;;;;;18.36;100.00;101107.25;5041381;28;20470;-75
2022/08/02 05:56:24;;;;;;;2.40;2.20;;;;;;;18.47;100.00;101101.47;5047623;28;20219;-75
2022/08/02 05:58:56;;;;;;;4.00;3.00;;;;;;;18.48;100.00;101109.28;5057895;28;20207;-75
2022/08/02 06:01:28;;;;;;;2.90;2.60;;;;;;;18.57;100.00;101115.88;5045321;28;20199;-75
2022/08/02 06:03:57;;;;;;;3.10;2.70;;;;;;;18.67;100.00;101126.81;5045007;28;20191;-75
2022/08/02 06:06:25;;;;;;;2.90;2.60;;;;;;;18.74;100.00;101120.28;5039142;28;20227;-75
2022/08/02 06:08:58;;;;;;;3.40;3.10;;;;;;;18.74;100.00;101121.13;5054067;28;20198;-75
2022/08/02 06:11:34;;;;;;;2.60;2.40;;;;;;;18.78;100.00;101118.34;5043086;28;20204;-75
2022/08/02 06:14:02;;;;;;;7.43;2.60;;;;;;;18.87;100.00;101126.66;5029188;28;20191;-75
2022/08/02 06:16:30;;;;;;;3.90;2.70;;;;;;;18.91;100.00;101122.91;5054032;28;20261;-75
2022/08/02 06:18:58;;;;;;;3.10;2.80;;;;;;;18.99;100.00;101122.50;5045366;28;20205;-75
2022/08/02 06:21:26;;;;;;;4.27;2.47;;;;;;;19.07;100.00;101119.47;5042508;28;20907;-75
2022/08/02 06:23:57;;;;;;;2.93;2.70;;;;;;;19.16;100.00;101123.41;5040439;28;20621;-75
2022/08/02 06:26:24;;;;;;;2.90;2.70;;;;;;;19.28;100.00;101131.50;5047718;28;20254;-75
2022/08/02 06:28:52;;;;;;;3.07;2.53;;;;;;;19.40;100.00;101129.13;5051968;28;20203;-75
2022/08/02 06:31:19;;;;;;;2.87;2.57;;;;;;;19.63;100.00;101133.13;5036004;28;20599;-75
2022/08/02 06:33:46;;;;;;;3.37;2.50;;;;;;;19.74;100.00;101136.06;5058309;28;20573;-75
2022/08/02 06:36:19;;;;;;;2.80;2.60;;;;;;;19.89;100.00;101136.13;5055970;28;20229;-75
2022/08/02 06:38:54;;;;;;;3.03;2.60;;;;;;;19.82;100.00;101139.13;5042719;28;20218;-75
2022/08/02 06:41:24;;;;;;;4.50;2.60;;;;;;;19.81;100.00;101131.28;5058693;28;20655;-75
2022/08/02 06:43:54;;;;;;;3.20;2.57;;;;;;;19.67;100.00;101139.97;5043212;28;20195;-75
2022/08/02 06:46:21;;;;;;;3.20;2.60;;;;;;;19.75;100.00;101137.78;5047953;28;20298;-75
2022/08/02 06:48:48;;;;;;;5.53;2.77;;;;;;;19.73;100.00;101136.94;5047836;28;20580;-75
2022/08/02 06:51:14;;;;;;;4.17;2.57;;;;;;;19.78;100.00;101127.00;5039970;28;20207;-75
2022/08/02 06:53:41;;;;;;;2.80;2.23;;;;;;;19.90;100.00;101129.91;5057061;28;20187;-75
2022/08/02 06:56:07;;;;;;;3.80;2.77;;;;;;;19.93;100.00;101140.28;5042357;28;20231;-76
2022/08/02 06:58:35;;;;;;;4.27;2.47;;;;;;;19.99;100.00;101132.84;5050504;28;20200;-75
2022/08/02 07:01:05;;;;;;;2.77;2.30;;;;;;;20.13;100.00;101140.00;5042221;28;20226;-75
2022/08/02 07:03:33;;;;;;;2.50;2.13;;;;;;;20.30;100.00;101136.38;5044232;28;20513;-75
2022/08/02 07:05:59;;;;;;;2.70;2.50;;;;;;;20.34;100.00;101132.59;5043229;28;20219;-75
2022/08/02 07:08:30;;;;;;;2.57;2.37;;;;;;;20.44;100.00;101127.63;5044110;28;20206;-75
2022/08/02 07:10:57;;;;;;;2.23;1.83;;;;;;;20.55;100.00;101137.56;5052557;28;20210;-76
2022/08/02 07:13:23;;;;;;;2.23;2.03;;;;;;;20.73;100.00;101139.13;5055019;28;20199;-75
2022/08/02 07:15:51;;;;;;;3.47;2.40;;;;;;;20.91;100.00;101136.28;5044240;28;20229;-76
2022/08/02 07:18:17;;;;;;;4.17;2.77;;;;;;;20.78;99.01;101123.81;5052310;28;20195;-75
2022/08/02 07:20:45;;;;;;;4.43;2.67;;;;;;;20.91;100.00;101125.69;5054037;28;20290;-75
2022/08/02 07:23:11;;;;;;;2.53;2.30;;;;;;;20.95;96.83;101129.88;5052529;28;20557;-76
2022/08/02 07:25:37;;;;;;;2.87;2.50;;;;;;;21.08;97.81;101127.31;5056297;28;20223;-76
2022/08/02 07:28:05;;;;;;;2.93;2.63;;;;;;;21.08;97.17;101117.56;5054199;28;20226;-75
2022/08/02 07:30:32;;;;;;;3.50;2.43;;;;;;;21.13;98.41;101117.28;5046654;28;20248;-75
2022/08/02 07:32:59;;;;;;;2.80;2.20;;;;;;;21.10;98.24;101117.47;5040199;28;20293;-76
2022/08/02 07:35:26;;;;;;;2.70;2.30;;;;;;;21.22;97.57;101113.19;5033717;28;20541;-75
2022/08/02 07:37:52;;;;;;;3.30;2.60;;;;;;;21.31;98.41;101109.94;5046866;28;20253;-75
2022/08/02 07:40:19;;;;;;;2.77;2.33;;;;;;;21.26;97.71;101112.03;5037097;28;20246;-75
2022/08/02 07:42:47;;;;;;;3.20;2.57;;;;;;;21.29;96.68;101111.84;5017383;28;20261;-75
2022/08/02 07:45:14;;;;;;;3.10;2.47;;;;;;;21.29;93.15;101114.50;5037581;28;20198;-75
2022/08/02 07:47:42;;;;;;;3.10;2.80;;;;;;;21.42;94.35;101117.22;5039976;28;20191;-75
2022/08/02 07:50:11;;;;;;;4.20;2.40;;;;;;;21.78;94.74;101108.72;5021191;28;20673;-75
2022/08/02 07:52:38;;;;;;;3.23;2.13;;;;;;;22.12;94.22;101112.63;5038571;28;20287;-75
2022/08/02 07:55:05;;;;;;;3.33;2.20;;;;;;;22.40;88.02;101128.53;5042495;28;20219;-75
2022/08/02 07:57:32;;;;;;;2.35;2.15;;;;;;;22.69;90.66;101119.41;5044596;28;20200;-76
2022/08/02 07:59:59;;;;;;;2.20;2.00;;;;;;;22.75;89.67;101118.13;5042423;28;20372;-75
2022/08/02 08:02:25;;;;;;;2.55;2.28;;;;;;;22.64;88.50;101115.38;5042972;28;20534;-75
2022/08/02 08:04:52;;;;;;;3.03;2.35;;;;;;;22.43;84.02;101112.41;5053876;28;20541;-75
2022/08/02 08:07:21;;;;;;;2.38;2.10;;;;;;;22.46;88.40;101109.50;5041733;28;20219;-76
2022/08/02 08:09:49;;;;;;;2.83;2.22;;;;;;;22.38;88.60;101107.38;5046239;28;20677;-75
2022/08/02 08:12:16;;;;;;;3.88;2.72;;;;;;;22.58;87.64;101110.47;5046019;28;20202;-76
2022/08/02 08:14:42;;;;;;;3.40;2.20;;;;;;;22.58;83.57;101115.78;5043182;28;20192;-76
2022/08/02 08:17:09;;;;;;;2.40;2.20;;;;;;;22.66;85.17;101116.97;5041592;28;20234;-75
2022/08/02 08:19:36;;;;;;;2.30;2.10;;;;;;;22.93;83.81;101121.31;5037689;28;20197;-75
2022/08/02 08:22:02;;;;;;;2.78;2.10;;;;;;;22.92;79.09;101118.75;5039493;28;20677;-76
2022/08/02 08:24:30;;;;;;;3.78;2.33;;;;;;;23.16;81.55;101110.88;5050083;28;20208;-76
2022/08/02 08:26:57;;;;;;;2.90;2.38;;;;;;;23.42;80.79;101115.16;5032980;28;20228;-75
2022/08/02 08:29:25;;;;;;;2.90;2.20;;;;;;;23.57;77.36;101115.00;5048532;28;20422;-76
2022/08/02 08:31:52;;;;;;;2.40;2.20;;;;;;;23.62;74.43;101128.81;5039108;28;20235;-75
2022/08/02 08:34:18;;;;;;;2.58;2.15;;;;;;;23.31;73.65;101122.25;5036504;28;20286;-75
2022/08/02 08:36:45;;;;;;;2.03;1.83;;;;;;;23.46;72.75;101120.28;5051509;28;20226;-75
2022/08/02 08:39:11;;;;;;;2.42;2.10;;;;;;;23.40;73.32;101122.41;5023455;28;20240;-75
2022/08/02 08:41:42;;;;;;;2.22;1.77;;;;;;;23.51;74.69;101116.31;5043230;28;20851;-75
2022/08/02 08:44:08;;;;;;;2.08;1.88;;;;;;;23.62;72.12;101126.16;5036203;28;20852;-76
2022/08/02 08:46:37;;;;;;;2.25;2.05;;;;;;;23.64;71.42;101132.25;5015356;28;20230;-76
2022/08/02 08:49:09;;;;;;;2.20;1.50;;;;;;;23.95;73.84;101124.66;5042958;28;20596;-76
2022/08/02 08:51:37;;;;;;;1.60;1.50;;;;;;;24.15;69.47;101137.34;5038027;28;20210;-76
2022/08/02 08:54:08;;;;;;;1.70;1.58;;;;;;;24.19;65.31;101136.13;5044480;28;20662;-76
2022/08/02 08:56:35;;;;;;;1.70;1.60;;;;;;;24.17;66.29;101130.09;5041506;28;20223;-76
2022/08/02 08:59:04;;;;;;;1.60;1.50;;;;;;;24.28;67.32;101131.09;5041599;28;20210;-76
2022/08/02 09:01:30;;;;;;;1.80;1.60;;;;;;;24.52;70.14;101118.56;5038658;28;20200;-76
2022/08/02 09:03:57;;;;;;;2.40;1.60;;;;;;;24.75;65.45;101131.94;5025596;28;20199;-76
2022/08/02 09:06:23;;;;;;;1.70;1.25;;;;;;;24.99;63.12;101125.63;5043052;28;20215;-75
2022/08/02 09:08:50;;;;;;;1.83;1.48;;;;;;;25.06;62.90;101129.50;5049837;28;20194;-75
2022/08/02 09:11:18;;;;;;;1.75;1.65;;;;;;;25.05;60.55;101128.66;5033317;28;20233;-75
2022/08/02 09:13:52;;;;;;;1.48;1.38;;;;;;;24.99;63.16;101121.13;5058419;28;20199;-75
2022/08/02 09:16:32;;;;;;;1.60;1.30;;;;;;;24.70;61.73;101126.13;5049909;28;20222;-75
2022/08/02 09:19:00;;;;;;;2.95;1.48;;;;;;;24.62;60.18;101136.50;5032436;28;20199;-75
2022/08/02 09:21:35;;;;;;;3.03;1.10;;;;;;;24.80;60.10;101135.09;5023159;28;20203;-75
2022/08/02 09:24:01;;;;;;;1.15;1.05;;;;;;;24.90;56.68;101133.38;5036508;28;20201;-75
2022/08/02 09:26:28;;;;;;;1.30;1.20;;;;;;;24.86;56.17;101139.94;5037203;28;20576;-75
2022/08/02 09:29:00;;;;;;;1.30;1.20;;;;;;;25.14;55.88;101135.09;5041749;28;20196;-75
2022/08/02 09:31:27;;;;;;;1.38;0.90;;;;;;;25.11;53.89;101125.50;5059975;28;20217;-76
2022/08/02 09:33:57;;;;;;;1.05;0.98;;;;;;;25.24;53.05;101117.38;5045746;28;20202;-74
2022/08/02 09:36:24;;;;;;;1.50;1.25;;;;;;;25.22;55.98;101116.63;5045509;28;20470;-74
2022/08/02 09:38:56;;;;;;;1.73;1.33;;;;;;;25.14;55.76;101116.41;5047797;28;20659;-74
2022/08/02 09:41:25;;;;;;;1.50;1.40;;;;;;;24.89;55.33;101110.38;5032228;28;20204;-74
2022/08/02 09:43:53;;;;;;;1.52;1.30;;;;;;;24.66;55.76;101114.84;5038186;28;20480;-74
2022/08/02 09:46:21;;;;;;;1.30;1.20;;;;;;;24.50;55.92;101114.28;5036855;28;20689;-74
2022/08/02 09:48:50;;;;;;;2.72;1.30;;;;;;;24.64;56.51;101106.09;5045921;28;20303;-74
2022/08/02 09:51:22;;;;;;;1.20;1.10;;;;;;;24.73;59.41;101097.41;5035073;28;20200;-74
2022/08/02 09:53:50;;;;;;;1.10;1.10;;;;;;;24.81;56.98;101104.78;5044566;28;20205;-74
2022/08/02 09:56:18;;;;;;;1.30;1.20;;;;;;;25.05;55.43;101103.81;5051422;28;20218;-74
2022/08/02 09:58:45;;;;;;;1.27;1.17;;;;;;;25.28;58.26;101102.00;5046681;28;20204;-74
2022/08/02 10:01:11;;;;;;;2.75;1.08;;;;;;;25.19;51.56;101108.91;5047428;28;20215;-74
2022/08/02 10:03:53;;;;;;;2.20;1.10;;;;;;;25.33;55.76;101097.16;5040629;28;20195;-74
2022/08/02 10:06:21;;;;;;;1.42;1.30;;;;;;;25.71;57.25;101093.13;5034146;28;20553;-74
2022/08/02 10:08:48;;;;;;;1.30;1.15;;;;;;;25.66;51.85;101101.53;5028941;28;20583;-74
2022/08/02 10:11:14;;;;;;;1.30;1.20;;;;;;;25.75;53.15;101085.72;5050927;28;20199;-74
2022/08/02 10:13:42;;;;;;;1.30;1.20;;;;;;;25.74;50.50;101078.69;5045878;28;20615;-74
2022/08/02 10:16:10;;;;;;;1.50;1.40;;;;;;;25.67;54.24;101081.03;5041245;28;20309;-74
2022/08/02 10:18:36;;;;;;;1.40;1.30;;;;;;;25.41;53.55;101089.34;5014827;28;20652;-75
2022/08/02 10:21:06;;;;;;;1.38;1.27;;;;;;;25.18;53.55;101085.00;5017651;28;20199;-75
2022/08/02 10:23:38;;;;;;;1.17;1.10;;;;;;;25.17;53.39;101077.97;5041492;28;20555;-75
2022/08/02 10:26:07;;;;;;;1.40;1.30;;;;;;;25.11;54.75;101077.47;5046873;28;20234;-75
2022/08/02 10:28:33;;;;;;;1.35;1.25;;;;;;;24.98;56.70;101084.78;5040900;28;20211;-75
2022/08/02 10:31:02;;;;;;;1.90;1.40;;;;;;;24.88;54.75;101082.00;5052682;28;20903;-75
2022/08/02 10:33:30;;;;;;;1.42;1.33;;;;;;;25.17;55.44;101081.50;5041384;28;20206;-75
2022/08/02 10:35:59;;;;;;;1.48;1.38;;;;;;;25.57;52.88;101078.25;5048267;28;20231;-75
2022/08/02 10:38:26;;;;;;;1.38;1.10;;;;;;;25.91;51.61;101075.47;5053870;28;20202;-76
2022/08/02 10:40:56;;;;;;;1.40;1.30;;;;;;;26.20;53.85;101077.50;5034939;28;20653;-75
2022/08/02 10:43:41;;;;;;;1.27;1.17;;;;;;;26.35;50.24;101072.66;5040576;28;20246;-75
2022/08/02 10:46:29;;;;;;;1.20;1.10;;;;;;;26.47;50.05;101055.56;5059242;28;20280;-75
2022/08/02 10:49:09;;;;;;;1.20;1.10;;;;;;;26.52;49.67;101063.19;5038683;28;20204;-76
2022/08/02 10:52:05;;;;;;;1.40;1.10;;;;;;;26.70;51.50;101067.00;5043587;28;20195;-75
2022/08/02 10:54:33;;;;;;;1.38;1.20;;;;;;;26.84;48.97;101071.09;5037954;28;20231;-75
2022/08/02 10:57:02;;;;;;;1.10;1.00;;;;;;;26.87;48.71;101061.97;5045701;28;20219;-76
2022/08/02 10:59:30;;;;;;;1.35;1.25;;;;;;;27.01;47.24;101058.91;5042243;28;20208;-75
2022/08/02 11:02:01;;;;;;;1.52;1.42;;;;;;;26.95;48.69;101054.13;5025327;28;20582;-76
2022/08/02 11:04:31;;;;;;;1.40;1.30;;;;;;;27.17;49.10;101048.53;5032501;28;20207;-76
2022/08/02 11:07:09;;;;;;;3.47;1.33;;;;;;;27.25;50.37;101053.19;5025063;28;20227;-75
2022/08/02 11:09:35;;;;;;;1.15;1.08;;;;;;;27.42;47.36;101062.41;5045349;28;20224;-75
2022/08/02 11:12:06;;;;;;;1.40;1.30;;;;;;;27.45;45.29;101053.25;5049535;28;20202;-75
2022/08/02 11:14:35;;;;;;;1.25;1.15;;;;;;;27.37;43.66;101053.97;5048720;28;20191;-75
2022/08/02 11:17:13;;;;;;;2.63;1.42;;;;;;;27.32;46.27;101051.69;5041916;28;20230;-75
2022/08/02 11:20:15;;;;;;;1.25;1.15;;;;;;;27.52;45.80;101062.41;5043938;28;20199;-75
2022/08/02 11:22:43;;;;;;;1.35;1.25;;;;;;;27.49;45.48;101058.19;5044498;28;20200;-75
2022/08/02 11:25:32;;;;;;;2.28;1.20;;;;;;;27.38;45.26;101055.63;5044016;28;20191;-75
2022/08/02 11:28:08;;;;;;;1.70;1.20;;;;;;;27.13;46.11;101054.31;5040070;28;20738;-75
2022/08/02 11:30:35;;;;;;;1.42;1.33;;;;;;;27.18;47.50;101057.41;5050003;28;20199;-75